Time;durP1;ratioP1;P1;durP2;ratioP2;P2;SDS_P1;SDS_P2;PMS_P1;PMS_P2;Temp;Humidity;BMP_temperature;BMP_pressure;BME280_temperature;BME280_humidity;BME280_pressure;Samples;Min_cycle;Max_cycle;Signal;HPM_P1;HPM_P2
2022/06/21 00:02:22;;;;;;;120.30;98.85;;;;;;;17.72;61.39;94605.31;4976292;28;20038;-72
2022/06/21 00:04:48;;;;;;;150.82;126.57;;;;;;;17.69;61.18;94603.25;4992088;28;20025;-74
2022/06/21 00:07:19;;;;;;;115.15;95.90;;;;;;;17.69;61.13;94606.66;4976084;28;20033;-73
2022/06/21 00:09:44;;;;;;;120.13;95.13;;;;;;;17.64;61.01;94608.53;4976248;28;20046;-73
2022/06/21 00:12:12;;;;;;;103.32;87.30;;;;;;;17.65;61.17;94607.47;5008493;28;20042;-73
2022/06/21 00:14:37;;;;;;;89.03;76.85;;;;;;;17.63;61.01;94605.13;4975659;28;20084;-72
2022/06/21 00:17:03;;;;;;;59.45;52.80;;;;;;;17.64;61.25;94608.53;4992326;28;20382;-72
2022/06/21 00:19:28;;;;;;;57.17;35.55;;;;;;;17.64;60.89;94613.78;4975897;28;20396;-74
2022/06/21 00:21:54;;;;;;;36.28;23.55;;;;;;;17.61;60.97;94606.47;4975804;28;20034;-73
2022/06/21 00:24:19;;;;;;;30.45;21.08;;;;;;;17.57;60.73;94605.44;4991669;28;20084;-73
2022/06/21 00:26:45;;;;;;;29.10;19.50;;;;;;;17.55;60.85;94599.69;5008728;28;20038;-72
2022/06/21 00:29:11;;;;;;;50.15;26.33;;;;;;;17.51;61.31;94601.31;4992869;28;20028;-74
2022/06/21 00:31:37;;;;;;;31.27;23.90;;;;;;;17.51;61.16;94593.44;4977428;28;20038;-74
2022/06/21 00:34:12;;;;;;;34.20;23.75;;;;;;;17.50;61.46;94597.13;4976575;28;20041;-74
2022/06/21 00:36:37;;;;;;;36.50;22.70;;;;;;;17.46;61.29;94601.38;4992033;28;20026;-74
2022/06/21 00:39:23;;;;;;;30.17;22.52;;;;;;;17.45;61.86;94597.19;4991678;28;20041;-74
2022/06/21 00:41:53;;;;;;;31.15;21.52;;;;;;;17.44;61.62;94595.63;4973582;28;20056;-74
2022/06/21 00:44:31;;;;;;;26.05;19.10;;;;;;;17.38;61.94;94595.66;4992714;28;20098;-74
2022/06/21 00:47:05;;;;;;;27.25;16.95;;;;;;;17.29;62.21;94597.34;5010834;28;20053;-73
2022/06/21 00:49:47;;;;;;;39.67;17.05;;;;;;;17.30;62.51;94609.44;4978892;28;20154;-74
2022/06/21 00:52:15;;;;;;;33.75;19.42;;;;;;;17.31;62.27;94600.47;4979798;28;20032;-73
2022/06/21 00:54:40;;;;;;;36.13;20.85;;;;;;;17.34;63.03;94602.53;4979747;28;20667;-74
2022/06/21 00:57:13;;;;;;;26.35;15.15;;;;;;;17.32;62.49;94602.03;5014737;28;20030;-73
2022/06/21 00:59:39;;;;;;;23.13;13.40;;;;;;;17.32;62.68;94601.25;4995835;28;20103;-73
2022/06/21 01:02:21;;;;;;;14.38;7.47;;;;;;;17.32;61.52;94596.78;4995231;28;20026;-73
2022/06/21 01:04:49;;;;;;;21.50;5.28;;;;;;;17.33;60.01;94592.31;4979308;28;20659;-74
2022/06/21 01:07:15;;;;;;;7.47;5.45;;;;;;;17.36;60.59;94586.50;5011931;28;20486;-74
2022/06/21 01:09:50;;;;;;;13.93;7.28;;;;;;;17.40;60.65;94592.75;4994664;28;20053;-73
2022/06/21 01:12:23;;;;;;;5.90;4.00;;;;;;;17.42;59.58;94589.88;4978560;28;20045;-74
2022/06/21 01:15:00;;;;;;;6.57;3.72;;;;;;;17.45;59.14;94597.19;4978734;28;20026;-73
2022/06/21 01:17:29;;;;;;;8.35;5.88;;;;;;;17.46;59.85;94596.13;4994512;28;20383;-74
2022/06/21 01:20:00;;;;;;;15.95;6.85;;;;;;;17.51;60.42;94598.69;4994184;28;20057;-74
2022/06/21 01:22:53;;;;;;;35.63;14.30;;;;;;;17.52;61.12;94600.25;4977695;28;20034;-74
2022/06/21 01:25:34;;;;;;;21.58;12.13;;;;;;;17.50;61.58;94602.38;4987345;28;20046;-73
2022/06/21 01:27:59;;;;;;;24.65;12.35;;;;;;;17.43;61.49;94601.94;5011217;28;20113;-74
2022/06/21 01:30:27;;;;;;;19.52;11.95;;;;;;;17.42;61.54;94601.16;4994113;28;20037;-74
2022/06/21 01:32:52;;;;;;;16.85;10.95;;;;;;;17.40;61.34;94596.16;4978326;28;20586;-74
2022/06/21 01:35:39;;;;;;;15.00;7.93;;;;;;;17.39;61.24;94602.47;4993512;28;20109;-75
2022/06/21 01:38:05;;;;;;;21.35;10.93;;;;;;;17.40;61.46;94609.31;4996717;28;20026;-74
2022/06/21 01:40:33;;;;;;;28.70;9.60;;;;;;;17.34;61.74;94601.75;4978185;28;20065;-74
2022/06/21 01:43:01;;;;;;;16.33;8.52;;;;;;;17.34;61.48;94605.16;4976698;28;20037;-74
2022/06/21 01:45:30;;;;;;;16.08;7.47;;;;;;;17.33;61.89;94595.72;4977922;28;20397;-73
2022/06/21 01:47:58;;;;;;;13.32;7.78;;;;;;;17.37;61.39;94603.81;5011564;28;20083;-73
2022/06/21 01:50:24;;;;;;;14.35;6.25;;;;;;;17.33;61.20;94605.44;4993928;28;20747;-73
2022/06/21 01:52:51;;;;;;;18.50;6.78;;;;;;;17.25;61.80;94613.97;4994002;28;20040;-74
2022/06/21 01:55:41;;;;;;;17.10;6.60;;;;;;;17.20;61.53;94620.03;4977190;28;20057;-74
2022/06/21 01:58:10;;;;;;;15.75;6.80;;;;;;;17.17;61.99;94615.31;4983903;28;20046;-73
2022/06/21 02:00:35;;;;;;;14.63;6.55;;;;;;;17.17;61.91;94610.06;4995085;28;20034;-73
2022/06/21 02:03:06;;;;;;;12.20;6.30;;;;;;;17.10;62.57;94612.25;4977760;28;20404;-74
2022/06/21 02:05:38;;;;;;;12.60;6.28;;;;;;;17.10;62.37;94614.88;4993248;28;20033;-73
2022/06/21 02:08:07;;;;;;;15.50;6.55;;;;;;;17.08;62.29;94611.72;4994223;28;20045;-74
2022/06/21 02:10:50;;;;;;;12.98;6.05;;;;;;;17.07;61.89;94616.19;4977506;28;20072;-73
2022/06/21 02:13:24;;;;;;;15.93;6.63;;;;;;;16.99;62.71;94610.78;4995168;28;20897;-73
2022/06/21 02:15:59;;;;;;;10.80;5.93;;;;;;;16.96;62.79;94611.31;4992682;28;20038;-74
2022/06/21 02:18:24;;;;;;;13.88;5.80;;;;;;;16.91;62.96;94621.84;4977374;28;20045;-73
2022/06/21 02:20:55;;;;;;;11.27;5.90;;;;;;;16.88;62.53;94614.53;4977549;28;20030;-74
2022/06/21 02:23:22;;;;;;;21.48;6.10;;;;;;;16.85;63.17;94612.47;5001635;28;20083;-74
2022/06/21 02:25:50;;;;;;;16.17;6.47;;;;;;;16.83;63.16;94609.34;4977470;28;20049;-74
2022/06/21 02:28:17;;;;;;;13.05;6.40;;;;;;;16.83;63.00;94601.44;4977023;28;20030;-73
2022/06/21 02:30:43;;;;;;;16.48;5.40;;;;;;;16.83;63.37;94607.50;4992374;28;20100;-74
2022/06/21 02:33:13;;;;;;;12.48;6.18;;;;;;;16.80;62.96;94602.78;4994229;28;20675;-73
2022/06/21 02:35:42;;;;;;;27.58;6.22;;;;;;;16.74;63.34;94599.41;4977609;28;20030;-73
2022/06/21 02:38:32;;;;;;;12.32;5.75;;;;;;;16.75;63.63;94597.56;4977200;28;20030;-74
2022/06/21 02:41:25;;;;;;;22.48;6.05;;;;;;;16.72;63.61;94588.41;4995402;28;20045;-74
2022/06/21 02:44:10;;;;;;;12.52;6.40;;;;;;;16.66;63.50;94599.97;4985110;28;20391;-74
2022/06/21 02:46:37;;;;;;;19.17;7.07;;;;;;;16.66;63.95;94607.06;4995274;28;20045;-73
2022/06/21 02:49:10;;;;;;;19.33;8.82;;;;;;;16.65;63.45;94601.03;4992437;28;20084;-74
2022/06/21 02:51:40;;;;;;;20.00;9.40;;;;;;;16.62;63.87;94596.34;4977484;28;20513;-74
2022/06/21 02:54:16;;;;;;;16.55;8.27;;;;;;;16.63;63.73;94595.28;4993337;28;20044;-73
2022/06/21 02:56:49;;;;;;;13.57;8.02;;;;;;;16.69;63.59;94599.44;4977278;28;20041;-74
2022/06/21 02:59:14;;;;;;;20.13;7.28;;;;;;;16.70;63.26;94593.16;4976908;28;20034;-74
2022/06/21 03:02:11;;;;;;;20.95;6.82;;;;;;;16.69;63.43;94602.06;4993400;28;20521;-73
2022/06/21 03:04:39;;;;;;;18.15;6.35;;;;;;;16.71;63.48;94589.47;4992153;28;20421;-73
2022/06/21 03:07:04;;;;;;;8.35;5.82;;;;;;;16.75;63.25;94585.22;4976899;28;20053;-73
2022/06/21 03:09:30;;;;;;;16.67;7.50;;;;;;;16.74;62.83;94588.91;5016819;28;20115;-73
2022/06/21 03:11:58;;;;;;;22.77;6.53;;;;;;;16.78;63.25;94595.19;4976758;28;20030;-74
2022/06/21 03:14:24;;;;;;;12.20;5.15;;;;;;;16.87;63.06;94589.31;5009143;28;20095;-74
2022/06/21 03:16:50;;;;;;;8.88;5.40;;;;;;;16.88;62.69;94591.69;5010310;28;20044;-74
2022/06/21 03:19:26;;;;;;;19.38;5.60;;;;;;;16.92;62.46;94581.41;4992023;28;20030;-74
2022/06/21 03:21:52;;;;;;;17.05;5.90;;;;;;;16.99;62.29;94581.88;4992305;28;20038;-74
2022/06/21 03:24:21;;;;;;;14.75;5.82;;;;;;;17.04;62.51;94576.56;4992209;28;20036;-74
2022/06/21 03:27:03;;;;;;;11.27;5.85;;;;;;;17.07;62.28;94583.88;4975193;28;20026;-73
2022/06/21 03:29:29;;;;;;;21.93;5.17;;;;;;;17.19;61.76;94584.28;4978014;28;20084;-74
2022/06/21 03:31:54;;;;;;;16.02;5.75;;;;;;;17.21;62.10;94584.03;4996772;28;20029;-74
2022/06/21 03:34:20;;;;;;;24.08;5.57;;;;;;;17.24;62.00;94581.59;4997738;28;20042;-73
2022/06/21 03:36:46;;;;;;;14.18;5.82;;;;;;;17.38;61.61;94585.16;4976730;28;20057;-74
2022/06/21 03:39:14;;;;;;;16.92;5.80;;;;;;;17.53;61.42;94581.56;4992493;28;20326;-73
2022/06/21 03:41:43;;;;;;;13.05;5.53;;;;;;;17.62;61.46;94584.38;4975074;28;20244;-74
2022/06/21 03:44:28;;;;;;;8.35;5.47;;;;;;;17.69;60.80;94590.88;4977072;28;20022;-74
2022/06/21 03:47:18;;;;;;;11.68;5.30;;;;;;;17.84;60.07;94597.81;4992235;28;20057;-74
2022/06/21 03:49:48;;;;;;;21.83;5.68;;;;;;;17.92;59.67;94605.09;4980024;28;20100;-73
2022/06/21 03:52:52;;;;;;;8.73;4.82;;;;;;;18.17;58.61;94611.06;4976136;28;20128;-74
2022/06/21 03:55:26;;;;;;;13.95;4.93;;;;;;;18.28;57.77;94609.88;5008799;28;20044;-73
2022/06/21 03:58:29;;;;;;;11.05;5.78;;;;;;;18.36;57.53;94603.94;5008293;28;20038;-73
2022/06/21 04:01:13;;;;;;;9.55;4.78;;;;;;;18.49;56.96;94608.50;4983532;28;20030;-73
2022/06/21 04:03:50;;;;;;;13.63;5.13;;;;;;;19.06;57.03;94609.22;5008867;28;20116;-73
2022/06/21 04:06:17;;;;;;;17.88;5.28;;;;;;;21.14;51.32;94592.75;4991870;28;20033;-74
2022/06/21 04:08:57;;;;;;;5.95;4.32;;;;;;;23.46;44.39;94593.41;5009360;28;20037;-75
2022/06/21 04:11:41;;;;;;;9.05;5.07;;;;;;;25.63;39.86;94583.47;4976187;28;20036;-74
2022/06/21 04:14:13;;;;;;;19.17;5.07;;;;;;;27.67;35.35;94585.44;4979301;28;20045;-75
2022/06/21 04:16:44;;;;;;;;;;;;;;;29.38;31.89;94586.34;4992577;28;20060;-74
2022/06/21 04:19:32;;;;;;;13.25;4.57;;;;;;;31.06;29.01;94574.19;5010510;28;19918;-74
2022/06/21 04:22:27;;;;;;;7.18;3.85;;;;;;;32.44;27.23;94579.22;4994993;28;20592;-74
2022/06/21 04:24:58;;;;;;;16.95;4.97;;;;;;;34.08;25.10;94578.84;4995832;28;20409;-75
2022/06/21 04:27:29;;;;;;;7.50;4.40;;;;;;;35.23;23.17;94563.81;4994555;28;20041;-74
2022/06/21 04:30:00;;;;;;;19.42;4.45;;;;;;;35.90;22.30;94574.19;4995435;28;20803;-75
2022/06/21 04:32:45;;;;;;;12.80;4.30;;;;;;;36.87;21.02;94563.91;4979390;28;20038;-72
2022/06/21 04:35:15;;;;;;;5.22;3.80;;;;;;;37.67;19.79;94562.44;4994069;28;20034;-73
2022/06/21 04:37:59;;;;;;;18.45;4.22;;;;;;;38.55;19.44;94551.22;4979271;28;20018;-72
2022/06/21 04:40:31;;;;;;;13.38;3.60;;;;;;;39.53;18.02;94548.81;4978902;28;20121;-73
2022/06/21 04:43:01;;;;;;;3.95;3.38;;;;;;;40.38;16.86;94554.88;4977215;28;20041;-73
2022/06/21 04:45:36;;;;;;;8.48;3.55;;;;;;;41.05;16.43;94562.41;4992212;28;20022;-73
2022/06/21 04:48:13;;;;;;;13.20;3.92;;;;;;;41.57;15.96;94558.50;5012273;28;20030;-73
2022/06/21 04:50:54;;;;;;;9.02;3.38;;;;;;;42.33;15.32;94561.13;5011573;28;20125;-73
2022/06/21 04:53:23;;;;;;;15.15;3.33;;;;;;;42.84;14.61;94569.09;4977559;28;20037;-73
2022/06/21 04:56:00;;;;;;;14.27;3.38;;;;;;;43.38;14.44;94574.13;4976482;28;20038;-74
2022/06/21 04:58:25;;;;;;;20.48;3.22;;;;;;;44.02;14.14;94577.06;4993009;28;20466;-72
2022/06/21 05:00:50;;;;;;;9.20;2.83;;;;;;;44.55;13.39;94581.56;4994573;28;20036;-73
2022/06/21 05:03:29;;;;;;;4.93;2.40;;;;;;;45.13;12.74;94583.34;5011953;28;20497;-75
2022/06/21 05:05:54;;;;;;;7.47;2.67;;;;;;;45.43;12.42;94596.06;4993898;28;20029;-75
2022/06/21 05:08:21;;;;;;;7.95;2.35;;;;;;;46.00;12.46;94598.09;4977771;28;20103;-78
2022/06/21 05:10:48;;;;;;;15.30;2.38;;;;;;;46.32;11.80;94600.03;5011568;28;20040;-75
2022/06/21 05:13:19;;;;;;;12.77;3.65;;;;;;;47.12;11.43;94595.56;4994725;28;20108;-76
2022/06/21 05:15:44;;;;;;;13.82;2.90;;;;;;;47.86;11.33;94598.25;5010596;28;20506;-73
2022/06/21 05:18:20;;;;;;;17.55;2.70;;;;;;;48.30;10.95;94600.09;4977781;28;20038;-75
2022/06/21 05:21:08;;;;;;;4.43;2.35;;;;;;;48.89;10.16;94599.75;4978479;28;20032;-75
2022/06/21 05:23:33;;;;;;;12.45;2.53;;;;;;;49.34;9.79;94589.16;4978354;28;20077;-73
2022/06/21 05:26:00;;;;;;;7.40;2.50;;;;;;;49.79;9.71;94591.00;4994778;28;20038;-75
2022/06/21 05:32:28;;;;;;;11.38;2.67;;;;;;;51.06;9.24;94596.81;5001284;28;20477;-73
2022/06/21 05:34:57;;;;;;;14.55;3.05;;;;;;;51.31;8.95;94595.06;5011760;28;20164;-73
2022/06/21 05:37:22;;;;;;;9.35;2.60;;;;;;;51.52;8.34;94587.25;5011337;28;20033;-74
2022/06/21 05:39:49;;;;;;;10.77;2.70;;;;;;;51.68;8.15;94585.72;5011917;28;20200;-80
2022/06/21 05:42:16;;;;;;;12.85;2.58;;;;;;;51.77;8.57;94580.69;4978453;28;20026;-75
2022/06/21 05:45:06;;;;;;;21.05;3.20;;;;;;;51.85;8.47;94578.13;4998852;28;20034;-78
2022/06/21 05:47:43;;;;;;;7.18;2.80;;;;;;;51.99;8.42;94579.09;5000820;28;20042;-78
2022/06/21 05:50:18;;;;;;;7.28;2.58;;;;;;;51.76;8.69;94578.44;5001679;28;20042;-76
2022/06/21 05:52:54;;;;;;;7.32;2.33;;;;;;;51.06;8.36;94577.41;4978935;28;20034;-75
2022/06/21 05:55:23;;;;;;;10.98;2.83;;;;;;;50.86;8.91;94570.06;4978231;28;20041;-74
2022/06/21 05:58:05;;;;;;;13.47;3.07;;;;;;;50.68;8.95;94562.22;5011494;28;20033;-76
2022/06/21 06:00:46;;;;;;;7.70;2.78;;;;;;;51.01;9.02;94567.81;4992576;28;20065;-75
2022/06/21 06:03:19;;;;;;;12.82;2.80;;;;;;;51.73;8.53;94568.31;4978658;28;20041;-75
2022/06/21 06:05:45;;;;;;;12.95;2.65;;;;;;;51.68;8.37;94561.50;4993535;28;20052;-75
2022/06/21 06:08:13;;;;;;;11.43;2.58;;;;;;;51.92;8.36;94564.50;4991812;28;20041;-75
2022/06/21 06:10:40;;;;;;;13.95;2.72;;;;;;;52.11;8.46;94570.28;4993586;28;20104;-76
2022/06/21 06:13:12;;;;;;;15.10;3.28;;;;;;;52.61;8.52;94572.06;4976104;28;20563;-76
2022/06/21 06:15:41;;;;;;;9.65;2.78;;;;;;;52.92;7.73;94567.34;4975716;28;20026;-75
2022/06/21 06:18:15;;;;;;;13.23;3.37;;;;;;;52.62;7.84;94570.03;4990092;28;20025;-75
2022/06/21 06:20:55;;;;;;;6.10;2.40;;;;;;;51.91;8.26;94578.88;5008355;28;20113;-77
2022/06/21 06:23:26;;;;;;;8.77;3.17;;;;;;;50.25;9.30;94580.94;4992205;28;20042;-74
2022/06/21 06:26:06;;;;;;;8.45;3.17;;;;;;;48.62;9.91;94585.19;5007803;28;20092;-74
2022/06/21 06:29:03;;;;;;;15.18;3.50;;;;;;;48.10;10.52;94590.56;4992082;28;20125;-74
2022/06/21 06:32:11;;;;;;;13.52;3.30;;;;;;;47.78;10.95;94583.34;4995374;28;20026;-73
2022/06/21 06:34:42;;;;;;;10.73;2.85;;;;;;;48.42;10.36;94576.91;4958960;28;20065;-74
2022/06/21 06:37:31;;;;;;;12.20;3.58;;;;;;;48.46;10.20;94580.22;4977088;28;20037;-76
2022/06/21 06:39:57;;;;;;;10.63;2.72;;;;;;;47.84;11.30;94581.41;5000886;28;20133;-73
2022/06/21 06:42:28;;;;;;;7.15;3.00;;;;;;;47.68;11.04;94576.41;5010221;28;20037;-75
2022/06/21 06:44:58;;;;;;;16.42;3.47;;;;;;;48.11;11.37;94577.53;4990275;28;20047;-74
2022/06/21 06:47:31;;;;;;;7.80;2.75;;;;;;;47.69;11.71;94566.94;4973310;28;20033;-73
2022/06/21 06:50:11;;;;;;;10.15;2.67;;;;;;;47.11;12.19;94563.00;4991457;28;20042;-73
2022/06/21 06:52:58;;;;;;;8.25;3.38;;;;;;;47.33;12.29;94559.84;4976677;28;20080;-75
2022/06/21 06:55:43;;;;;;;12.15;3.40;;;;;;;47.21;12.59;94558.94;4992306;28;20057;-75
2022/06/21 06:58:25;;;;;;;14.02;2.72;;;;;;;47.35;12.62;94558.13;4989276;28;20030;-74
2022/06/21 07:00:53;;;;;;;12.43;3.30;;;;;;;47.43;12.63;94551.00;4971086;28;20065;-74
2022/06/21 07:03:21;;;;;;;8.82;2.80;;;;;;;47.36;12.78;94543.16;4986666;28;20033;-74
2022/06/21 07:05:49;;;;;;;5.18;2.65;;;;;;;46.90;13.43;94546.41;4987242;28;20560;-74
2022/06/21 07:08:31;;;;;;;6.10;2.85;;;;;;;46.44;13.83;94542.53;5003534;28;20040;-74
2022/06/21 07:10:57;;;;;;;4.57;2.42;;;;;;;45.94;14.21;94542.25;4987464;28;20061;-73
2022/06/21 07:13:24;;;;;;;8.45;2.65;;;;;;;44.71;14.96;94540.09;4980352;28;20034;-73
2022/06/21 07:15:49;;;;;;;13.48;2.60;;;;;;;43.92;15.73;94539.91;4987465;28;20038;-73
2022/06/21 07:18:16;;;;;;;8.82;2.70;;;;;;;43.13;16.83;94536.75;5005642;28;20052;-77
2022/06/21 07:20:43;;;;;;;5.78;2.50;;;;;;;42.69;17.09;94538.75;5006298;28;20038;-74
2022/06/21 07:23:36;;;;;;;23.85;3.67;;;;;;;42.03;18.02;94540.63;5009522;28;20065;-82
2022/06/21 07:26:06;;;;;;;24.33;3.45;;;;;;;41.32;18.30;94546.38;5014411;28;20038;-82
2022/06/21 07:28:33;;;;;;;10.38;2.78;;;;;;;40.24;19.40;94543.59;4994264;28;20028;-83
2022/06/21 07:31:01;;;;;;;25.52;3.30;;;;;;;39.74;20.31;94544.84;4997397;28;20096;-77
2022/06/21 07:33:36;;;;;;;7.75;3.70;;;;;;;39.04;21.61;94544.00;5008790;28;20034;-78
2022/06/21 07:36:08;;;;;;;9.88;2.88;;;;;;;38.30;20.46;94550.94;4975862;28;20097;-78
2022/06/21 07:39:12;;;;;;;10.07;4.13;;;;;;;37.76;22.07;94540.22;4994411;28;20038;-82
2022/06/21 07:42:00;;;;;;;13.23;3.70;;;;;;;36.96;21.65;94550.66;4981925;28;20030;-78
2022/06/21 07:44:25;;;;;;;5.05;3.20;;;;;;;36.59;23.22;94553.38;5010913;28;20112;-78
2022/06/21 07:46:52;;;;;;;7.88;3.97;;;;;;;36.09;23.73;94562.03;5001206;28;20489;-77
2022/06/21 07:49:43;;;;;;;7.40;2.88;;;;;;;35.59;24.66;94569.75;4993138;28;20505;-78
2022/06/21 07:52:17;;;;;;;9.50;2.90;;;;;;;35.11;24.45;94562.31;4953965;28;20105;-78
2022/06/21 07:54:53;;;;;;;5.85;2.88;;;;;;;34.82;25.82;94567.06;4974388;28;20340;-78
2022/06/21 07:57:20;;;;;;;4.57;2.90;;;;;;;34.68;25.38;94567.16;4975269;28;20034;-78
2022/06/21 08:00:21;;;;;;;9.70;3.67;;;;;;;34.42;27.34;94571.09;4992954;28;20041;-77
2022/06/21 08:08:55;;;;;;;9.93;4.63;;;;;;;33.69;27.63;94579.59;4977437;28;20096;-77
2022/06/21 08:11:37;;;;;;;11.18;3.97;;;;;;;33.61;27.50;94588.84;4987872;28;20038;-77
2022/06/21 08:14:03;;;;;;;9.23;3.55;;;;;;;33.43;29.05;94592.28;4992429;28;20033;-78
2022/06/21 08:16:33;;;;;;;16.77;4.95;;;;;;;33.23;28.34;94590.31;5011589;28;20540;-79
2022/06/21 08:19:26;;;;;;;28.65;5.18;;;;;;;32.99;28.56;94594.44;5009247;23;20049;-77
2022/06/21 08:22:08;;;;;;;20.45;4.43;;;;;;;32.85;30.07;94587.09;5005922;28;20069;-79
2022/06/21 08:24:50;;;;;;;18.50;4.78;;;;;;;32.86;29.74;94590.56;5030765;28;20052;-77
2022/06/21 08:27:24;;;;;;;;;;;;;;;32.76;30.29;94595.50;5031073;28;20042;-77
2022/06/21 08:29:54;;;;;;;16.33;4.25;;;;;;;32.63;29.70;94601.59;5029996;28;19936;-77
2022/06/21 08:32:35;;;;;;;4.35;3.58;;;;;;;32.48;30.65;94601.53;5011109;28;20116;-78
2022/06/21 08:35:25;;;;;;;11.10;4.13;;;;;;;32.27;31.10;94597.91;5027722;28;20107;-78
2022/06/21 08:38:06;;;;;;;10.15;4.35;;;;;;;32.11;31.31;94598.19;5026707;28;20045;-77
2022/06/21 08:40:31;;;;;;;13.80;4.82;;;;;;;32.05;31.24;94605.81;5026963;28;20048;-77
2022/06/21 08:43:11;;;;;;;18.83;5.05;;;;;;;32.01;32.51;94605.03;5028757;28;20026;-77
2022/06/21 08:45:54;;;;;;;12.45;4.68;;;;;;;32.00;32.69;94602.72;5012435;28;20041;-78
2022/06/21 08:48:38;;;;;;;21.63;5.50;;;;;;;31.92;32.33;94604.59;4996754;28;20440;-77
2022/06/21 08:51:21;;;;;;;12.10;5.22;;;;;;;31.87;32.59;94602.22;5028729;28;20117;-77
2022/06/21 08:54:26;;;;;;;22.67;5.82;;;;;;;31.77;32.56;94592.19;5028611;28;20040;-77
2022/06/21 08:57:13;;;;;;;15.15;5.68;;;;;;;31.57;34.36;94586.25;5027946;28;20040;-77
2022/06/21 08:59:44;;;;;;;20.33;5.90;;;;;;;31.45;33.59;94586.50;5029011;28;20095;-77
2022/06/21 09:02:32;;;;;;;46.97;7.30;;;;;;;31.05;33.62;94588.75;5027696;28;20120;-78
2022/06/21 09:05:10;;;;;;;13.85;6.40;;;;;;;30.74;34.94;94583.78;5027293;28;20037;-77
2022/06/21 09:07:47;;;;;;;13.55;5.10;;;;;;;30.54;35.22;94590.41;5029352;28;20025;-76
2022/06/21 09:10:57;;;;;;;23.00;5.88;;;;;;;30.37;35.39;94576.41;5029663;28;20039;-77
2022/06/21 09:13:42;;;;;;;18.52;6.15;;;;;;;30.37;36.36;94571.03;5030244;28;20084;-77
2022/06/21 09:16:27;;;;;;;8.95;5.25;;;;;;;30.42;35.99;94572.63;5031724;28;20108;-76
2022/06/21 09:19:22;;;;;;;28.45;5.85;;;;;;;30.32;36.18;94579.41;5031671;28;20056;-77
2022/06/21 09:21:51;;;;;;;14.85;5.75;;;;;;;30.18;36.75;94574.63;5031668;28;20041;-77
2022/06/21 09:24:23;;;;;;;32.75;5.75;;;;;;;30.15;36.61;94558.50;5030737;28;20033;-77
2022/06/21 09:27:10;;;;;;;9.73;5.75;;;;;;;30.12;37.33;94553.84;5030096;28;20064;-77
2022/06/21 09:29:44;;;;;;;16.90;5.20;;;;;;;30.07;37.57;94556.84;5031067;28;20112;-78
2022/06/21 09:32:35;;;;;;;10.80;5.15;;;;;;;30.03;37.46;94545.25;5031770;28;20057;-78
2022/06/21 09:35:20;;;;;;;10.85;5.97;;;;;;;29.94;37.49;94555.47;5032420;28;20037;-78
2022/06/21 09:37:57;;;;;;;22.35;5.78;;;;;;;29.80;37.50;94548.78;5032102;28;20044;-78
2022/06/21 09:40:30;;;;;;;14.70;5.43;;;;;;;29.71;37.99;94553.59;5016057;28;20033;-78
2022/06/21 09:43:03;;;;;;;28.02;6.72;;;;;;;29.73;38.63;94554.00;5015740;28;20052;-78
2022/06/21 09:46:04;;;;;;;13.40;5.50;;;;;;;29.66;38.98;94548.56;5015521;28;20026;-79
2022/06/21 09:48:35;;;;;;;12.38;6.53;;;;;;;29.62;38.89;94552.31;5033939;28;20041;-78
2022/06/21 09:51:09;;;;;;;19.85;5.68;;;;;;;29.61;38.91;94543.47;5031259;28;20038;-77
2022/06/21 09:53:48;;;;;;;13.10;5.75;;;;;;;29.60;38.84;94549.97;5013969;28;20042;-77
2022/06/21 09:56:16;;;;;;;31.17;7.80;;;;;;;29.59;39.12;94548.44;5014325;28;20037;-78
2022/06/21 09:58:44;;;;;;;20.00;5.97;;;;;;;29.59;38.88;94548.44;5030806;28;20033;-78
2022/06/21 10:01:37;;;;;;;13.50;6.97;;;;;;;29.52;38.63;94540.28;5029832;28;20022;-78
2022/06/21 10:04:21;;;;;;;16.40;7.65;;;;;;;29.51;39.16;94546.78;5029984;28;20029;-79
2022/06/21 10:07:22;;;;;;;17.15;6.78;;;;;;;29.57;39.21;94534.63;5030145;28;20087;-78
2022/06/21 10:09:54;;;;;;;17.33;6.60;;;;;;;29.51;38.84;94530.69;5027254;28;20056;-77
2022/06/21 10:12:23;;;;;;;;;;;;;;;29.47;39.49;94529.88;5030224;28;20064;-78
2022/06/21 10:14:58;;;;;;;20.30;5.35;;;;;;;29.49;39.11;94533.75;5028627;28;19921;-78
2022/06/21 10:17:45;;;;;;;12.95;4.97;;;;;;;29.50;39.09;94534.53;5029349;28;20029;-77
2022/06/21 10:20:23;;;;;;;11.63;5.13;;;;;;;29.52;39.47;94532.25;5029622;28;20132;-77
2022/06/21 10:23:26;;;;;;;17.13;5.65;;;;;;;29.58;37.79;94531.56;5028334;28;20044;-78
2022/06/21 10:26:06;;;;;;;15.50;5.10;;;;;;;29.61;38.59;94534.66;5029960;28;20045;-77
2022/06/21 10:28:44;;;;;;;10.77;5.30;;;;;;;29.49;38.48;94543.69;5033138;28;20048;-78
2022/06/21 10:31:21;;;;;;;14.05;5.22;;;;;;;29.41;38.25;94533.94;5032383;28;20057;-77
2022/06/21 10:34:13;;;;;;;9.77;5.75;;;;;;;29.33;39.29;94529.63;5031020;28;20026;-77
2022/06/21 10:37:02;;;;;;;26.30;5.63;;;;;;;29.34;39.17;94537.28;5011036;28;20041;-77
2022/06/21 10:39:37;;;;;;;11.98;5.13;;;;;;;29.31;39.85;94537.25;5014944;28;20029;-78
2022/06/21 10:45:15;;;;;;;12.48;4.78;;;;;;;29.21;39.95;94536.69;5029507;28;20127;-77
2022/06/21 10:48:08;;;;;;;13.52;4.40;;;;;;;29.12;39.27;94538.81;5031722;28;20042;-77
2022/06/21 10:50:40;;;;;;;12.45;4.68;;;;;;;29.08;40.07;94551.38;5030177;28;20128;-77
2022/06/21 10:53:25;;;;;;;7.35;4.60;;;;;;;29.07;39.81;94539.13;5030887;28;20033;-77
2022/06/21 10:59:01;;;;;;;15.35;4.85;;;;;;;28.95;40.21;94544.63;4998004;28;20049;-77
2022/06/21 11:01:44;;;;;;;12.38;6.05;;;;;;;28.91;40.87;94547.25;5030433;28;20041;-77
2022/06/21 11:04:17;;;;;;;9.75;4.63;;;;;;;29.03;40.64;94549.00;5031284;28;20041;-78
2022/06/21 11:06:50;;;;;;;8.55;5.28;;;;;;;29.13;40.93;94556.44;5011494;28;20988;-77
2022/06/21 11:09:24;;;;;;;6.60;5.00;;;;;;;29.24;40.05;94543.22;4997819;28;20041;-77
2022/06/21 11:11:52;;;;;;;11.50;5.65;;;;;;;29.33;40.59;94543.00;4998566;28;20055;-77
2022/06/21 11:14:50;;;;;;;14.73;5.90;;;;;;;29.36;40.84;94540.38;5029708;28;20342;-77
2022/06/21 11:17:48;;;;;;;12.35;6.32;;;;;;;29.39;40.07;94544.25;5029863;28;20033;-76
2022/06/21 11:20:34;;;;;;;15.23;6.30;;;;;;;29.54;40.08;94530.75;5026322;28;20058;-77
2022/06/21 11:23:41;;;;;;;9.32;4.65;;;;;;;29.75;39.98;94546.38;5029624;28;20095;-77
2022/06/21 11:26:28;;;;;;;15.57;5.22;;;;;;;29.87;38.43;94546.19;5029795;28;20926;-76
2022/06/21 11:29:25;;;;;;;10.45;5.43;;;;;;;29.87;38.30;94542.72;5028275;28;20041;-76
2022/06/21 11:31:54;;;;;;;8.73;5.18;;;;;;;29.85;39.19;94545.78;5029785;28;20128;-77
2022/06/21 11:34:27;;;;;;;19.83;5.45;;;;;;;29.79;38.81;94536.50;5029783;28;20457;-78
2022/06/21 11:37:07;;;;;;;9.70;5.57;;;;;;;29.74;38.10;94536.78;5029858;28;20048;-77
2022/06/21 11:39:33;;;;;;;6.97;5.28;;;;;;;29.70;38.58;94540.56;5015636;28;20136;-81
2022/06/21 11:42:08;;;;;;;10.50;5.57;;;;;;;29.64;38.75;94545.47;5034651;28;20426;-83
2022/06/21 11:45:13;;;;;;;17.63;5.97;;;;;;;29.60;39.65;94541.94;5034033;28;20033;-80
2022/06/21 11:47:54;;;;;;;10.70;5.18;;;;;;;29.59;40.34;94540.38;5037616;28;20036;-85
2022/06/21 11:50:45;;;;;;;15.20;5.65;;;;;;;29.54;39.61;94536.13;5020850;28;20049;-81
2022/06/21 11:53:48;;;;;;;27.70;5.93;;;;;;;29.43;39.39;94545.06;5018093;28;20110;-80
2022/06/21 11:56:18;;;;;;;15.68;5.90;;;;;;;29.34;39.98;94541.88;5033730;28;20029;-80
2022/06/21 11:58:58;;;;;;;14.13;6.15;;;;;;;29.35;39.83;94532.72;5033135;28;20057;-82
2022/06/21 12:02:02;;;;;;;12.63;5.38;;;;;;;29.38;40.23;94537.34;5035067;28;20425;-80
2022/06/21 12:04:48;;;;;;;16.70;6.13;;;;;;;29.38;40.30;94543.47;5022162;28;20073;-80
2022/06/21 12:07:23;;;;;;;19.13;5.50;;;;;;;29.43;40.08;94531.69;5036165;28;20036;-83
2022/06/21 12:09:57;;;;;;;18.88;5.63;;;;;;;29.43;39.95;94537.81;5002227;28;21042;-81
2022/06/21 12:12:25;;;;;;;12.52;5.30;;;;;;;29.45;39.91;94521.38;5036005;28;20132;-81
2022/06/21 12:15:03;;;;;;;18.33;5.75;;;;;;;29.44;40.81;94517.16;5035361;28;20053;-80
2022/06/21 12:18:09;;;;;;;19.52;5.55;;;;;;;29.38;39.63;94515.91;5031112;28;20116;-78
2022/06/21 12:20:42;;;;;;;18.65;5.78;;;;;;;29.32;40.24;94518.13;4998806;28;20045;-77
2022/06/21 12:23:10;;;;;;;19.60;6.00;;;;;;;29.25;39.95;94518.78;5030537;28;20033;-78
2022/06/21 12:25:36;;;;;;;10.13;5.80;;;;;;;29.21;40.79;94517.16;5028728;28;20031;-77